Time;durP1;ratioP1;P1;durP2;ratioP2;P2;SDS_P1;SDS_P2;PMS_P1;PMS_P2;Temp;Humidity;BMP_temperature;BMP_pressure;BME280_temperature;BME280_humidity;BME280_pressure;Samples;Min_cycle;Max_cycle;Signal;HPM_P1;HPM_P2
2022/07/11 00:01:48;;;;;;;5.60;3.15;;;;;;;;;;5023837;28;20032;-55
2022/07/11 00:04:13;;;;;;;3.38;2.92;;;;;;;;;;5028070;28;20167;-54
2022/07/11 00:06:38;;;;;;;5.97;3.25;;;;;;;;;;5026180;28;20036;-54
2022/07/11 00:09:04;;;;;;;4.07;2.88;;;;;;;;;;5027615;28;20025;-54
2022/07/11 00:11:29;;;;;;;9.07;3.08;;;;;;;;;;5026513;28;20033;-54
2022/07/11 00:13:55;;;;;;;6.35;3.45;;;;;;;;;;5029548;28;20033;-54
2022/07/11 00:16:20;;;;;;;4.50;3.50;;;;;;;;;;5027660;28;20498;-54
2022/07/11 00:18:46;;;;;;;7.28;3.10;;;;;;;;;;5028875;28;20128;-53
2022/07/11 00:21:11;;;;;;;4.80;3.50;;;;;;;;;;5028506;28;20037;-54
2022/07/11 00:23:37;;;;;;;9.35;3.42;;;;;;;;;;5030038;28;20078;-54
2022/07/11 00:26:03;;;;;;;4.40;3.10;;;;;;;;;;5028451;28;20025;-54
2022/07/11 00:28:29;;;;;;;4.20;2.85;;;;;;;;;;5028316;28;20483;-53
2022/07/11 00:30:55;;;;;;;3.92;2.67;;;;;;;;;;5027648;28;20108;-54
2022/07/11 00:33:20;;;;;;;4.28;3.22;;;;;;;;;;5029009;28;20036;-54
2022/07/11 00:35:46;;;;;;;4.03;3.33;;;;;;;;;;5032706;28;20025;-54
2022/07/11 00:38:11;;;;;;;6.47;3.55;;;;;;;;;;5027769;28;20178;-54
2022/07/11 00:40:37;;;;;;;4.43;3.05;;;;;;;;;;5024488;28;20034;-54
2022/07/11 00:43:03;;;;;;;3.97;3.10;;;;;;;;;;5025870;28;20040;-54
2022/07/11 00:45:29;;;;;;;6.15;3.30;;;;;;;;;;5022467;28;20483;-54
2022/07/11 00:47:55;;;;;;;5.72;3.08;;;;;;;;;;5031590;28;20088;-54
2022/07/11 00:50:21;;;;;;;5.20;3.08;;;;;;;;;;5030540;28;20029;-54
2022/07/11 00:52:47;;;;;;;4.70;3.00;;;;;;;;;;5029645;28;20026;-54
2022/07/11 00:55:12;;;;;;;8.35;3.00;;;;;;;;;;5031627;28;20526;-54
2022/07/11 00:57:39;;;;;;;4.97;3.50;;;;;;;;;;5029452;28;20041;-54
2022/07/11 01:00:05;;;;;;;3.95;3.10;;;;;;;;;;5029430;28;20042;-54
2022/07/11 01:02:31;;;;;;;6.63;3.22;;;;;;;;;;5028661;28;20029;-54
2022/07/11 01:04:56;;;;;;;7.32;3.42;;;;;;;;;;5029379;28;20108;-54
2022/07/11 01:07:22;;;;;;;5.57;3.42;;;;;;;;;;5029924;28;20441;-54
2022/07/11 01:09:47;;;;;;;12.32;3.25;;;;;;;;;;5026198;28;20079;-54
2022/07/11 01:12:12;;;;;;;4.47;3.05;;;;;;;;;;5029111;28;20032;-53
2022/07/11 01:14:38;;;;;;;4.43;3.13;;;;;;;;;;5028957;28;20021;-53
2022/07/11 01:17:04;;;;;;;5.07;2.85;;;;;;;;;;5029622;28;20026;-53
2022/07/11 01:19:29;;;;;;;8.82;3.47;;;;;;;;;;5030905;28;20048;-53
2022/07/11 01:21:58;;;;;;;4.53;3.00;;;;;;;;;;5027822;28;20324;-53
2022/07/11 01:24:24;;;;;;;7.45;3.08;;;;;;;;;;5026779;28;20491;-53
2022/07/11 01:26:50;;;;;;;5.25;3.13;;;;;;;;;;5025791;28;20041;-53
2022/07/11 01:29:16;;;;;;;4.80;3.10;;;;;;;;;;5027490;28;20061;-53
2022/07/11 01:31:42;;;;;;;4.32;2.97;;;;;;;;;;5028006;28;20530;-53
2022/07/11 01:34:08;;;;;;;5.85;3.17;;;;;;;;;;5025022;28;20553;-53
2022/07/11 01:36:33;;;;;;;6.15;3.00;;;;;;;;;;5026214;28;20029;-53
2022/07/11 01:38:59;;;;;;;3.70;2.85;;;;;;;;;;5028218;28;20060;-53
2022/07/11 01:41:24;;;;;;;4.85;3.28;;;;;;;;;;5024324;28;20386;-53
2022/07/11 01:43:50;;;;;;;7.18;3.28;;;;;;;;;;5024879;28;20028;-53
2022/07/11 01:46:17;;;;;;;6.22;3.47;;;;;;;;;;5031180;28;20445;-53
2022/07/11 01:48:43;;;;;;;5.78;3.17;;;;;;;;;;5030672;28;20025;-53
2022/07/11 01:51:09;;;;;;;5.13;3.00;;;;;;;;;;5028563;28;20033;-53
2022/07/11 01:53:34;;;;;;;9.43;3.88;;;;;;;;;;5030370;28;20535;-53
2022/07/11 01:55:59;;;;;;;5.25;3.25;;;;;;;;;;5028883;28;20018;-53
2022/07/11 01:58:25;;;;;;;4.93;3.13;;;;;;;;;;5028116;28;20486;-56
2022/07/11 02:00:50;;;;;;;4.32;2.80;;;;;;;;;;5026507;28;20053;-53
2022/07/11 02:03:16;;;;;;;4.15;2.95;;;;;;;;;;5027144;28;20495;-53
2022/07/11 02:05:42;;;;;;;4.28;2.70;;;;;;;;;;5027348;28;20029;-53
2022/07/11 02:08:13;;;;;;;3.63;2.63;;;;;;;;;;5029300;28;20033;-53
2022/07/11 02:10:45;;;;;;;8.20;3.67;;;;;;;;;;5024105;28;20315;-53
2022/07/11 02:13:12;;;;;;;5.57;3.45;;;;;;;;;;5023197;28;20030;-53
2022/07/11 02:15:38;;;;;;;5.68;3.08;;;;;;;;;;5030188;28;20126;-53
2022/07/11 02:18:03;;;;;;;4.50;3.03;;;;;;;;;;5025065;28;20120;-53
2022/07/11 02:20:28;;;;;;;4.13;3.20;;;;;;;;;;5023525;28;20037;-53
2022/07/11 02:22:56;;;;;;;5.90;3.40;;;;;;;;;;5024444;28;20653;-53
2022/07/11 02:25:22;;;;;;;3.55;3.05;;;;;;;;;;5029736;28;20075;-53
2022/07/11 02:27:48;;;;;;;6.28;3.22;;;;;;;;;;5029302;28;20037;-53
2022/07/11 02:30:14;;;;;;;4.57;3.03;;;;;;;;;;5024637;28;20022;-53
2022/07/11 02:32:39;;;;;;;4.43;3.13;;;;;;;;;;5022280;28;20036;-53
2022/07/11 02:35:05;;;;;;;3.45;3.00;;;;;;;;;;5019802;28;20022;-53
2022/07/11 02:37:31;;;;;;;3.40;2.83;;;;;;;;;;5026766;28;20017;-54
2022/07/11 02:39:56;;;;;;;3.78;2.90;;;;;;;;;;5024883;28;20044;-53
2022/07/11 02:42:22;;;;;;;6.78;3.17;;;;;;;;;;5026204;28;20025;-53
2022/07/11 02:44:47;;;;;;;6.43;3.47;;;;;;;;;;5028973;28;20025;-53
2022/07/11 02:47:14;;;;;;;6.90;3.28;;;;;;;;;;5029559;28;20025;-53
2022/07/11 02:49:40;;;;;;;6.97;3.25;;;;;;;;;;5026813;28;20048;-53
2022/07/11 02:52:06;;;;;;;5.38;2.63;;;;;;;;;;5028036;28;20405;-53
2022/07/11 02:54:31;;;;;;;5.05;2.70;;;;;;;;;;5025693;28;20033;-55
2022/07/11 02:56:57;;;;;;;5.57;3.03;;;;;;;;;;5028851;28;20033;-53
2022/07/11 02:59:22;;;;;;;5.40;2.60;;;;;;;;;;5026458;28;20076;-53
2022/07/11 03:01:48;;;;;;;6.72;3.47;;;;;;;;;;5029265;28;20552;-53
2022/07/11 03:04:14;;;;;;;4.78;3.10;;;;;;;;;;5026775;28;20403;-53
2022/07/11 03:06:39;;;;;;;3.80;2.65;;;;;;;;;;5026442;28;20021;-53
2022/07/11 03:09:07;;;;;;;5.68;3.53;;;;;;;;;;5024887;28;20052;-53
2022/07/11 03:11:33;;;;;;;6.13;3.00;;;;;;;;;;5024849;28;20430;-53
2022/07/11 03:14:00;;;;;;;4.45;2.45;;;;;;;;;;5023414;28;20615;-52
2022/07/11 03:16:26;;;;;;;4.55;2.80;;;;;;;;;;5025397;28;20525;-53
2022/07/11 03:18:52;;;;;;;6.05;3.10;;;;;;;;;;5022982;28;20030;-53
2022/07/11 03:21:17;;;;;;;5.82;2.83;;;;;;;;;;5021344;28;20025;-53
2022/07/11 03:23:42;;;;;;;4.07;2.60;;;;;;;;;;5025035;28;20041;-53
2022/07/11 03:26:08;;;;;;;3.00;2.70;;;;;;;;;;5025281;28;20033;-53
2022/07/11 03:28:33;;;;;;;4.97;2.88;;;;;;;;;;5023069;28;20025;-53
2022/07/11 03:30:58;;;;;;;5.88;2.95;;;;;;;;;;5022789;28;20156;-53
2022/07/11 03:33:24;;;;;;;3.45;2.83;;;;;;;;;;5022597;28;20557;-53
2022/07/11 03:35:50;;;;;;;5.05;2.92;;;;;;;;;;5022733;28;20483;-53
2022/07/11 03:38:19;;;;;;;4.35;2.60;;;;;;;;;;5026054;28;20692;-53
2022/07/11 03:40:44;;;;;;;4.85;2.40;;;;;;;;;;5027343;28;20048;-53
2022/07/11 03:43:10;;;;;;;8.75;4.30;;;;;;;;;;5028140;28;20114;-53
2022/07/11 03:45:36;;;;;;;6.72;3.13;;;;;;;;;;5028652;28;20029;-53
2022/07/11 03:48:02;;;;;;;3.90;3.30;;;;;;;;;;5027808;28;20578;-53
2022/07/11 03:50:28;;;;;;;3.55;3.00;;;;;;;;;;5027304;28;20120;-54
2022/07/11 03:52:54;;;;;;;3.97;3.00;;;;;;;;;;5026498;28;20069;-53
2022/07/11 03:55:20;;;;;;;6.78;3.30;;;;;;;;;;5024681;28;20050;-53
2022/07/11 03:57:45;;;;;;;3.92;2.78;;;;;;;;;;5027272;28;20032;-53
2022/07/11 04:00:11;;;;;;;4.07;2.65;;;;;;;;;;5025624;28;20041;-53
2022/07/11 04:02:37;;;;;;;5.90;2.72;;;;;;;;;;5021909;28;20021;-53
2022/07/11 04:05:03;;;;;;;7.88;3.17;;;;;;;;;;5024482;28;20022;-53
2022/07/11 04:07:28;;;;;;;4.35;2.80;;;;;;;;;;5027544;28;20043;-53
2022/07/11 04:09:54;;;;;;;5.85;2.83;;;;;;;;;;5025169;28;20026;-53
2022/07/11 04:12:20;;;;;;;4.18;2.92;;;;;;;;;;5023625;28;20095;-53
2022/07/11 04:14:45;;;;;;;7.53;2.80;;;;;;;;;;5027732;28;20375;-53
2022/07/11 04:17:11;;;;;;;4.10;2.90;;;;;;;;;;5026534;28;20636;-53
2022/07/11 04:19:36;;;;;;;5.38;3.00;;;;;;;;;;5023697;28;20104;-53
2022/07/11 04:22:02;;;;;;;4.10;3.00;;;;;;;;;;5026058;28;20105;-57
2022/07/11 04:24:27;;;;;;;5.53;3.00;;;;;;;;;;5020458;28;20087;-57
2022/07/11 04:26:52;;;;;;;3.08;2.63;;;;;;;;;;5024963;28;20026;-58
2022/07/11 04:29:18;;;;;;;6.05;2.40;;;;;;;;;;5019007;28;20052;-58
2022/07/11 04:31:43;;;;;;;2.90;2.60;;;;;;;;;;5025944;28;20025;-57
2022/07/11 04:34:09;;;;;;;7.03;2.80;;;;;;;;;;5019792;28;20134;-58
2022/07/11 04:36:34;;;;;;;9.25;3.00;;;;;;;;;;5019003;28;20044;-57
2022/07/11 04:39:00;;;;;;;7.65;3.17;;;;;;;;;;5026442;28;20116;-58
2022/07/11 04:41:25;;;;;;;4.32;2.65;;;;;;;;;;5027196;28;20103;-58
2022/07/11 04:43:50;;;;;;;5.28;3.05;;;;;;;;;;5028087;28;20037;-57
2022/07/11 04:46:16;;;;;;;6.57;3.03;;;;;;;;;;5027771;28;20103;-57
2022/07/11 04:48:44;;;;;;;6.40;3.00;;;;;;;;;;5028096;28;20033;-57
2022/07/11 04:51:09;;;;;;;4.90;3.17;;;;;;;;;;5026049;28;20022;-58
2022/07/11 04:53:35;;;;;;;4.53;3.13;;;;;;;;;;5026065;28;20025;-58
2022/07/11 04:56:00;;;;;;;4.68;3.15;;;;;;;;;;5026395;28;20025;-58
2022/07/11 04:58:26;;;;;;;4.50;3.08;;;;;;;;;;5027142;28;20057;-57
2022/07/11 05:00:51;;;;;;;6.93;3.00;;;;;;;;;;5029466;28;20040;-57
2022/07/11 05:03:19;;;;;;;3.78;3.20;;;;;;;;;;5028708;28;20104;-57
2022/07/11 05:05:45;;;;;;;4.50;2.60;;;;;;;;;;5027104;28;20034;-57
2022/07/11 05:08:10;;;;;;;2.75;2.47;;;;;;;;;;5027585;28;20044;-58
2022/07/11 05:10:36;;;;;;;5.85;3.00;;;;;;;;;;5027034;28;20017;-57
2022/07/11 05:13:02;;;;;;;4.45;2.53;;;;;;;;;;5031362;28;20064;-57
2022/07/11 05:15:28;;;;;;;7.72;3.03;;;;;;;;;;5027520;28;20025;-58
2022/07/11 05:17:53;;;;;;;3.40;2.70;;;;;;;;;;5027774;28;20484;-57
2022/07/11 05:20:19;;;;;;;6.38;3.22;;;;;;;;;;5027058;28;20029;-58
2022/07/11 05:22:44;;;;;;;4.68;3.05;;;;;;;;;;5025888;28;20053;-58
2022/07/11 05:25:10;;;;;;;3.85;3.00;;;;;;;;;;5025623;28;20483;-58
2022/07/11 05:27:35;;;;;;;7.13;3.25;;;;;;;;;;5028154;28;20151;-57
2022/07/11 05:30:01;;;;;;;5.32;3.17;;;;;;;;;;5025837;28;20079;-58
2022/07/11 05:32:26;;;;;;;5.40;3.33;;;;;;;;;;5023931;28;20038;-59
2022/07/11 05:34:51;;;;;;;5.00;3.03;;;;;;;;;;5025086;28;20427;-58
2022/07/11 05:37:17;;;;;;;3.53;2.55;;;;;;;;;;5024040;28;20025;-58
2022/07/11 05:39:42;;;;;;;7.45;3.15;;;;;;;;;;5024951;28;20025;-58
2022/07/11 05:42:08;;;;;;;4.90;3.25;;;;;;;;;;5030733;28;20474;-58
2022/07/11 05:44:33;;;;;;;5.72;3.03;;;;;;;;;;5028884;28;20040;-58
2022/07/11 05:47:00;;;;;;;6.05;2.70;;;;;;;;;;5030592;28;20074;-58
2022/07/11 05:49:25;;;;;;;3.83;3.10;;;;;;;;;;5028945;28;20038;-58
2022/07/11 05:51:51;;;;;;;4.40;2.72;;;;;;;;;;5028171;28;20082;-58
2022/07/11 05:54:16;;;;;;;4.47;3.10;;;;;;;;;;5029571;28;20029;-58
2022/07/11 05:56:42;;;;;;;4.80;2.72;;;;;;;;;;5028413;28;20029;-58
2022/07/11 05:59:08;;;;;;;3.80;2.75;;;;;;;;;;5024386;28;20037;-58
2022/07/11 06:01:34;;;;;;;5.38;2.83;;;;;;;;;;5027076;28;20025;-57
2022/07/11 06:04:00;;;;;;;3.08;2.67;;;;;;;;;;5029388;28;20029;-58
2022/07/11 06:06:25;;;;;;;4.00;2.70;;;;;;;;;;5029198;28;20026;-58
2022/07/11 06:08:51;;;;;;;4.22;3.28;;;;;;;;;;5025595;28;20399;-57
2022/07/11 06:11:16;;;;;;;5.00;3.47;;;;;;;;;;5026587;28;20399;-58
2022/07/11 06:13:44;;;;;;;3.28;2.72;;;;;;;;;;5026571;28;20448;-58
2022/07/11 06:16:10;;;;;;;3.50;3.20;;;;;;;;;;5023902;28;20108;-58
2022/07/11 06:18:37;;;;;;;4.85;3.40;;;;;;;;;;5025161;28;20483;-58
2022/07/11 06:21:04;;;;;;;4.03;3.40;;;;;;;;;;5021522;28;20061;-58
2022/07/11 06:23:30;;;;;;;6.07;3.40;;;;;;;;;;5029211;28;20037;-58
2022/07/11 06:25:56;;;;;;;6.07;3.35;;;;;;;;;;5025062;28;20021;-58
2022/07/11 06:28:22;;;;;;;4.35;3.22;;;;;;;;;;5026960;28;20033;-58
2022/07/11 06:30:48;;;;;;;4.95;3.65;;;;;;;;;;5022829;28;20530;-58
2022/07/11 06:33:18;;;;;;;4.93;3.25;;;;;;;;;;5022950;28;20041;-58
2022/07/11 06:35:44;;;;;;;5.93;3.10;;;;;;;;;;5030743;28;20116;-58
2022/07/11 06:38:10;;;;;;;5.15;3.22;;;;;;;;;;5021803;28;20100;-58
2022/07/11 06:40:36;;;;;;;5.65;3.47;;;;;;;;;;5022555;28;20115;-58
2022/07/11 06:43:01;;;;;;;5.75;3.30;;;;;;;;;;5028008;28;20030;-58
2022/07/11 06:45:27;;;;;;;4.85;3.20;;;;;;;;;;5029267;28;20039;-58
2022/07/11 06:47:52;;;;;;;4.60;3.40;;;;;;;;;;5029011;28;20017;-58
2022/07/11 06:50:18;;;;;;;4.07;3.20;;;;;;;;;;5027013;28;20458;-58
2022/07/11 06:52:45;;;;;;;4.07;2.97;;;;;;;;;;5027835;28;20044;-58
2022/07/11 06:55:11;;;;;;;6.53;3.63;;;;;;;;;;5027020;28;20124;-58
2022/07/11 06:57:37;;;;;;;3.30;2.90;;;;;;;;;;5027971;28;20029;-58
2022/07/11 07:00:03;;;;;;;6.15;3.30;;;;;;;;;;5026186;28;20083;-58
2022/07/11 07:02:30;;;;;;;7.45;3.80;;;;;;;;;;5024860;28;20030;-58
2022/07/11 07:04:58;;;;;;;5.47;3.20;;;;;;;;;;5025514;28;20040;-58
2022/07/11 07:07:23;;;;;;;6.15;3.88;;;;;;;;;;5025438;28;20075;-57
2022/07/11 07:09:49;;;;;;;9.27;3.35;;;;;;;;;;5022404;28;20037;-57
2022/07/11 07:12:14;;;;;;;8.38;3.58;;;;;;;;;;5024904;28;20032;-57
2022/07/11 07:14:40;;;;;;;7.13;4.00;;;;;;;;;;5025280;28;20430;-58
2022/07/11 07:17:06;;;;;;;4.47;3.63;;;;;;;;;;5029839;28;20056;-57
2022/07/11 07:19:31;;;;;;;6.75;3.58;;;;;;;;;;5021418;28;20085;-58
2022/07/11 07:21:56;;;;;;;6.05;3.20;;;;;;;;;;5022271;28;20037;-58
2022/07/11 07:24:22;;;;;;;4.07;3.60;;;;;;;;;;5021249;28;20030;-59
2022/07/11 07:26:47;;;;;;;5.47;3.70;;;;;;;;;;5026597;28;20028;-58
2022/07/11 07:29:13;;;;;;;6.50;3.72;;;;;;;;;;5025571;28;20407;-58
2022/07/11 07:31:38;;;;;;;5.65;3.58;;;;;;;;;;5022280;28;20056;-57
2022/07/11 07:34:04;;;;;;;7.93;3.97;;;;;;;;;;5025129;28;20498;-58
2022/07/11 07:36:30;;;;;;;4.93;3.13;;;;;;;;;;5022966;28;20045;-57
2022/07/11 07:38:56;;;;;;;4.28;3.28;;;;;;;;;;5029043;28;20065;-58
2022/07/11 07:41:21;;;;;;;4.90;3.30;;;;;;;;;;5026638;28;20041;-57
2022/07/11 07:43:48;;;;;;;4.47;3.75;;;;;;;;;;5029597;28;20067;-57
2022/07/11 07:46:15;;;;;;;4.95;3.78;;;;;;;;;;5029084;28;20056;-58
2022/07/11 07:48:41;;;;;;;5.05;3.78;;;;;;;;;;5025093;28;20033;-58
2022/07/11 07:51:07;;;;;;;7.43;4.22;;;;;;;;;;5023555;28;20083;-58
2022/07/11 07:53:33;;;;;;;6.65;3.97;;;;;;;;;;5026846;28;20037;-57
2022/07/11 07:55:58;;;;;;;8.68;4.03;;;;;;;;;;5025622;28;20029;-58
2022/07/11 07:58:23;;;;;;;4.60;3.60;;;;;;;;;;5028102;28;20639;-58
2022/07/11 08:03:32;;;;;;;4.32;3.05;;;;;;;;;;5023444;28;20067;-58
2022/07/11 08:05:58;;;;;;;5.38;3.22;;;;;;;;;;5028458;28;20100;-58
2022/07/11 08:08:23;;;;;;;4.68;2.78;;;;;;;;;;5023217;28;20026;-58
2022/07/11 08:10:50;;;;;;;4.00;3.13;;;;;;;;;;5025154;28;20091;-58
2022/07/11 08:13:16;;;;;;;4.03;2.78;;;;;;;;;;5020384;28;20264;-58
2022/07/11 08:15:41;;;;;;;3.50;2.80;;;;;;;;;;5025411;28;20052;-58
2022/07/11 08:18:07;;;;;;;4.35;2.97;;;;;;;;;;5023547;28;20619;-57
2022/07/11 08:20:33;;;;;;;5.25;2.80;;;;;;;;;;5026697;28;20025;-58
2022/07/11 08:23:00;;;;;;;2.50;2.30;;;;;;;;;;5023812;28;20044;-58
2022/07/11 08:25:25;;;;;;;6.63;3.20;;;;;;;;;;5022830;28;20048;-58
2022/07/11 08:27:51;;;;;;;3.92;3.20;;;;;;;;;;5022486;28;20021;-58
2022/07/11 08:30:16;;;;;;;4.63;2.90;;;;;;;;;;5028388;28;20304;-58
2022/07/11 08:32:43;;;;;;;6.70;3.97;;;;;;;;;;5021424;28;20377;-58
2022/07/11 08:35:09;;;;;;;4.40;2.78;;;;;;;;;;5022947;28;20037;-58
2022/07/11 08:37:36;;;;;;;3.83;2.50;;;;;;;;;;5025869;28;21456;-58
2022/07/11 08:40:01;;;;;;;3.10;2.30;;;;;;;;;;5033316;28;20040;-58
2022/07/11 08:42:32;;;;;;;4.18;2.42;;;;;;;;;;5029051;28;20021;-58
2022/07/11 08:44:58;;;;;;;4.35;2.30;;;;;;;;;;5030232;28;20029;-58
2022/07/11 08:47:24;;;;;;;2.80;2.08;;;;;;;;;;5028093;28;20033;-58
2022/07/11 08:49:51;;;;;;;3.80;2.38;;;;;;;;;;5030267;28;20104;-58
2022/07/11 08:52:19;;;;;;;6.38;2.47;;;;;;;;;;5028466;28;20121;-58
2022/07/11 08:54:45;;;;;;;2.30;1.65;;;;;;;;;;5030045;28;20819;-58
2022/07/11 08:57:11;;;;;;;2.58;2.20;;;;;;;;;;5030318;28;20053;-58
2022/07/11 08:59:42;;;;;;;1.95;1.83;;;;;;;;;;5028842;28;20095;-57
2022/07/11 09:02:09;;;;;;;2.67;1.98;;;;;;;;;;5029294;28;20053;-57
2022/07/11 09:04:34;;;;;;;2.30;1.95;;;;;;;;;;5022796;28;20017;-57
2022/07/11 09:07:01;;;;;;;3.45;1.80;;;;;;;;;;5027680;28;20091;-57
2022/07/11 09:09:28;;;;;;;3.00;1.90;;;;;;;;;;5026317;28;20160;-57
2022/07/11 09:11:55;;;;;;;2.63;1.77;;;;;;;;;;5024677;28;20049;-57
2022/07/11 09:14:24;;;;;;;4.35;1.85;;;;;;;;;;5025912;28;20463;-58
2022/07/11 09:16:54;;;;;;;2.28;1.77;;;;;;;;;;5032378;28;20167;-57
2022/07/11 09:19:33;;;;;;;2.25;1.30;;;;;;;;;;5026521;28;20029;-57
2022/07/11 09:28:01;;;;;;;2.85;0.98;;;;;;;;;;5022547;28;20629;-58
2022/07/11 09:30:32;;;;;;;0.40;0.38;;;;;;;;;;5023490;28;20132;-57
2022/07/11 09:33:06;;;;;;;1.38;0.40;;;;;;;;;;5023392;28;20064;-57
2022/07/11 09:35:38;;;;;;;0.40;0.40;;;;;;;;;;5023184;28;20061;-57
2022/07/11 09:38:05;;;;;;;0.50;0.50;;;;;;;;;;5031616;28;20537;-57
2022/07/11 09:40:30;;;;;;;1.55;0.70;;;;;;;;;;5030523;28;20148;-58
2022/07/11 09:42:58;;;;;;;0.80;0.50;;;;;;;;;;5030560;28;20104;-58
2022/07/11 09:45:26;;;;;;;1.15;0.60;;;;;;;;;;5029495;28;20033;-58
2022/07/11 09:47:53;;;;;;;2.78;1.00;;;;;;;;;;5028752;28;20029;-58
2022/07/11 09:50:21;;;;;;;0.73;0.73;;;;;;;;;;5027544;28;20088;-58
2022/07/11 09:53:06;;;;;;;1.02;0.88;;;;;;;;;;5027197;28;20021;-58
2022/07/11 09:55:37;;;;;;;0.65;0.65;;;;;;;;;;5027902;28;20037;-58
2022/07/11 09:58:06;;;;;;;1.10;0.88;;;;;;;;;;5028075;28;20122;-58
2022/07/11 10:00:33;;;;;;;1.98;0.80;;;;;;;;;;5029249;28;20037;-58
2022/07/11 10:03:00;;;;;;;0.88;0.88;;;;;;;;;;5024044;28;20029;-58
2022/07/11 10:05:26;;;;;;;4.40;0.70;;;;;;;;;;5027295;28;20061;-58
2022/07/11 10:07:51;;;;;;;1.50;0.90;;;;;;;;;;5025187;28;20091;-59
2022/07/11 10:10:17;;;;;;;2.25;0.63;;;;;;;;;;5029278;28;20495;-58
2022/07/11 10:12:49;;;;;;;1.10;0.63;;;;;;;;;;5024644;28;20013;-58
2022/07/11 10:15:16;;;;;;;0.88;0.70;;;;;;;;;;5025911;28;20475;-58
2022/07/11 10:18:05;;;;;;;1.58;0.63;;;;;;;;;;5030318;28;20064;-58
2022/07/11 10:20:30;;;;;;;;;;;;;;;;;;5026505;28;20040;-58
2022/07/11 10:23:10;;;;;;;0.93;0.70;;;;;;;;;;5024319;28;19914;-58
2022/07/11 10:25:57;;;;;;;3.47;0.85;;;;;;;;;;5028087;28;20283;-58
2022/07/11 10:28:32;;;;;;;1.58;0.77;;;;;;;;;;5025209;28;20028;-58
2022/07/11 10:31:01;;;;;;;0.75;0.60;;;;;;;;;;5022193;28;20034;-58
2022/07/11 10:33:28;;;;;;;0.90;0.70;;;;;;;;;;5021710;28;20120;-58
2022/07/11 10:35:54;;;;;;;0.75;0.73;;;;;;;;;;5025221;28;20034;-57
2022/07/11 10:38:20;;;;;;;1.95;0.80;;;;;;;;;;5029142;28;20447;-57
2022/07/11 10:40:51;;;;;;;1.27;0.73;;;;;;;;;;5028338;28;20033;-58
2022/07/11 10:43:20;;;;;;;1.10;0.70;;;;;;;;;;5030304;28;20034;-59
2022/07/11 10:46:08;;;;;;;0.82;0.70;;;;;;;;;;5027614;28;20017;-59
2022/07/11 10:49:09;;;;;;;2.42;1.45;;;;;;;;;;5027287;28;20069;-60
2022/07/11 10:51:41;;;;;;;1.20;1.10;;;;;;;;;;5026583;28;20029;-60
2022/07/11 10:54:19;;;;;;;1.40;0.90;;;;;;;;;;5031671;28;20039;-60
2022/07/11 10:57:12;;;;;;;1.35;1.00;;;;;;;;;;5025420;28;20493;-59
2022/07/11 10:59:59;;;;;;;1.55;0.90;;;;;;;;;;5023022;28;20040;-59
2022/07/11 11:02:28;;;;;;;1.35;1.23;;;;;;;;;;5024440;28;20030;-59
2022/07/11 11:04:59;;;;;;;1.67;0.90;;;;;;;;;;5025917;28;20036;-59
2022/07/11 11:07:39;;;;;;;1.10;1.00;;;;;;;;;;5026030;28;20032;-60
2022/07/11 11:10:29;;;;;;;4.13;1.08;;;;;;;;;;5019881;28;20036;-59
2022/07/11 11:13:06;;;;;;;2.00;1.02;;;;;;;;;;5025039;28;20434;-60
2022/07/11 11:15:55;;;;;;;2.17;1.20;;;;;;;;;;5024225;28;20021;-60
2022/07/11 11:18:23;;;;;;;;;;;;;;;;;;5023778;28;20373;-60
2022/07/11 11:21:07;;;;;;;2.97;1.00;;;;;;;;;;5026072;28;19923;-59
2022/07/11 11:23:33;;;;;;;2.17;1.15;;;;;;;;;;5023202;28;20268;-60
2022/07/11 11:26:09;;;;;;;2.88;1.20;;;;;;;;;;5023999;28;20142;-59
2022/07/11 11:28:36;;;;;;;2.17;1.95;;;;;;;;;;5020839;28;20025;-59
2022/07/11 11:31:06;;;;;;;2.30;1.40;;;;;;;;;;5014351;28;20467;-59
2022/07/11 11:33:36;;;;;;;1.92;1.13;;;;;;;;;;5019764;28;20373;-61
2022/07/11 11:36:08;;;;;;;1.40;1.30;;;;;;;;;;5026088;28;20433;-60
2022/07/11 11:38:34;;;;;;;2.75;1.50;;;;;;;;;;5028512;28;20076;-58
2022/07/11 11:41:00;;;;;;;2.45;1.30;;;;;;;;;;5029241;28;20026;-59
2022/07/11 11:43:26;;;;;;;2.30;1.30;;;;;;;;;;5026192;28;20045;-59
2022/07/11 11:45:53;;;;;;;7.93;1.50;;;;;;;;;;5027108;28;20029;-59
2022/07/11 11:48:37;;;;;;;1.30;1.10;;;;;;;;;;5025299;28;20518;-59
2022/07/11 11:51:07;;;;;;;1.83;1.33;;;;;;;;;;5024681;28;20029;-59
2022/07/11 11:53:39;;;;;;;2.10;1.30;;;;;;;;;;5025987;28;20025;-59
2022/07/11 11:56:33;;;;;;;2.38;1.50;;;;;;;;;;5027394;28;20107;-59
2022/07/11 11:59:01;;;;;;;2.30;1.50;;;;;;;;;;5023466;28;20518;-59
2022/07/11 12:01:28;;;;;;;3.30;1.40;;;;;;;;;;5022983;28;20037;-59
2022/07/11 12:03:58;;;;;;;2.63;1.45;;;;;;;;;;5027799;28;20033;-59
2022/07/11 12:06:26;;;;;;;3.72;1.40;;;;;;;;;;5026167;28;20034;-60
2022/07/11 12:08:57;;;;;;;1.38;1.27;;;;;;;;;;5029150;28;20395;-59
2022/07/11 12:11:23;;;;;;;2.38;1.55;;;;;;;;;;5024954;28;20116;-59
2022/07/11 12:13:55;;;;;;;2.50;1.40;;;;;;;;;;5028428;28;20049;-60
2022/07/11 12:16:39;;;;;;;3.88;1.70;;;;;;;;;;5027012;28;20049;-58
2022/07/11 12:19:08;;;;;;;2.22;1.42;;;;;;;;;;5027102;28;20436;-58
2022/07/11 12:21:36;;;;;;;2.33;1.23;;;;;;;;;;5030223;28;20036;-59
2022/07/11 12:24:04;;;;;;;3.08;1.55;;;;;;;;;;5032661;28;20033;-58
2022/07/11 12:26:32;;;;;;;1.87;1.30;;;;;;;;;;5030872;28;20360;-58
2022/07/11 12:29:04;;;;;;;2.45;1.35;;;;;;;;;;5026941;28;20026;-58
2022/07/11 12:32:00;;;;;;;7.38;1.70;;;;;;;;;;5027787;28;20026;-59
2022/07/11 12:34:31;;;;;;;2.92;1.40;;;;;;;;;;5031163;28;20230;-58
2022/07/11 12:37:05;;;;;;;2.33;1.30;;;;;;;;;;5031182;28;20100;-58
2022/07/11 12:39:33;;;;;;;1.63;1.20;;;;;;;;;;5032373;28;20117;-57
2022/07/11 12:42:00;;;;;;;2.47;1.33;;;;;;;;;;5031572;28;20043;-58
2022/07/11 12:47:14;;;;;;;2.40;1.70;;;;;;;;;;5028675;28;20478;-58
2022/07/11 12:49:44;;;;;;;7.28;1.50;;;;;;;;;;5028300;28;20017;-58
2022/07/11 12:52:10;;;;;;;1.60;1.50;;;;;;;;;;5027604;28;20033;-58
2022/07/11 12:54:36;;;;;;;4.65;1.40;;;;;;;;;;5029282;28;20415;-58
2022/07/11 12:57:04;;;;;;;1.77;1.40;;;;;;;;;;5028498;28;20252;-58
2022/07/11 12:59:31;;;;;;;6.47;1.77;;;;;;;;;;5028521;28;20519;-59
2022/07/11 13:02:00;;;;;;;1.70;1.52;;;;;;;;;;5025060;28;20049;-58
2022/07/11 13:04:33;;;;;;;2.05;1.67;;;;;;;;;;5027791;28;20025;-58
2022/07/11 13:10:02;;;;;;;3.67;1.40;;;;;;;;;;5022288;28;20407;-58
2022/07/11 13:12:28;;;;;;;3.33;1.55;;;;;;;;;;5029639;28;20057;-60
2022/07/11 13:15:09;;;;;;;4.60;1.85;;;;;;;;;;5027449;28;20052;-59
2022/07/11 13:17:42;;;;;;;1.65;1.50;;;;;;;;;;5026901;28;20499;-59
2022/07/11 13:20:27;;;;;;;2.88;1.83;;;;;;;;;;5028902;28;20029;-59
2022/07/11 13:22:52;;;;;;;3.03;1.75;;;;;;;;;;5030114;28;20032;-59
2022/07/11 13:25:21;;;;;;;3.90;1.70;;;;;;;;;;5024213;28;20037;-59
2022/07/11 13:27:48;;;;;;;1.75;1.48;;;;;;;;;;5031711;28;20037;-59
2022/07/11 13:30:20;;;;;;;3.45;2.00;;;;;;;;;;5028036;28;20044;-59
2022/07/11 13:32:47;;;;;;;2.60;1.90;;;;;;;;;;5022118;28;20048;-59
2022/07/11 13:35:13;;;;;;;3.15;1.63;;;;;;;;;;5026975;28;20089;-59
2022/07/11 13:37:40;;;;;;;2.95;1.70;;;;;;;;;;5031076;28;20037;-59
2022/07/11 13:40:09;;;;;;;4.68;1.63;;;;;;;;;;5030479;28;20036;-59
2022/07/11 13:42:35;;;;;;;3.25;1.80;;;;;;;;;;5028603;28;20029;-59
2022/07/11 13:45:01;;;;;;;2.05;1.67;;;;;;;;;;5030103;28;20033;-59
2022/07/11 13:47:27;;;;;;;3.70;1.92;;;;;;;;;;5027952;28;20053;-59
2022/07/11 13:49:52;;;;;;;2.97;1.77;;;;;;;;;;5029250;28;20443;-59
2022/07/11 13:52:18;;;;;;;4.55;2.10;;;;;;;;;;5029333;28;20041;-59
2022/07/11 13:54:43;;;;;;;3.03;1.80;;;;;;;;;;5027018;28;20564;-59
2022/07/11 13:57:09;;;;;;;3.05;2.10;;;;;;;;;;5023950;28;20025;-59
2022/07/11 13:59:35;;;;;;;2.30;2.10;;;;;;;;;;5025932;28;20023;-58
2022/07/11 14:02:02;;;;;;;4.82;1.90;;;;;;;;;;5024297;28;20402;-59
2022/07/11 14:04:28;;;;;;;3.50;2.13;;;;;;;;;;5021995;28;20037;-58
2022/07/11 14:06:53;;;;;;;6.13;1.90;;;;;;;;;;5020570;28;20031;-58
2022/07/11 14:09:18;;;;;;;3.10;1.90;;;;;;;;;;5028457;28;20052;-57
2022/07/11 14:11:44;;;;;;;2.60;1.92;;;;;;;;;;5023510;28;20030;-58
2022/07/11 14:14:09;;;;;;;5.45;2.25;;;;;;;;;;5027878;28;20025;-58
2022/07/11 14:16:35;;;;;;;2.97;2.00;;;;;;;;;;5021730;28;20033;-59
2022/07/11 14:19:04;;;;;;;2.05;1.85;;;;;;;;;;5021294;28;20026;-58
2022/07/11 14:21:30;;;;;;;2.80;2.10;;;;;;;;;;5022009;28;20571;-60
2022/07/11 14:23:56;;;;;;;3.25;2.28;;;;;;;;;;5028370;28;20052;-59
2022/07/11 14:26:21;;;;;;;5.45;2.28;;;;;;;;;;5020790;28;20025;-57
2022/07/11 14:28:46;;;;;;;9.18;2.50;;;;;;;;;;5020593;28;20511;-57
2022/07/11 14:31:12;;;;;;;3.25;2.00;;;;;;;;;;5020590;28;20029;-57
2022/07/11 14:33:38;;;;;;;3.63;2.10;;;;;;;;;;5031972;28;20021;-58
2022/07/11 14:36:05;;;;;;;3.40;2.20;;;;;;;;;;5030176;28;20036;-57
2022/07/11 14:38:31;;;;;;;2.88;2.10;;;;;;;;;;5029157;28;20060;-59
2022/07/11 14:40:56;;;;;;;3.33;2.28;;;;;;;;;;5027768;28;20651;-57
2022/07/11 14:43:21;;;;;;;3.15;2.15;;;;;;;;;;5027651;28;20033;-57
2022/07/11 14:45:47;;;;;;;4.20;2.00;;;;;;;;;;5027753;28;20445;-57
2022/07/11 14:48:13;;;;;;;6.35;2.47;;;;;;;;;;5024049;28;20022;-57
2022/07/11 14:50:39;;;;;;;2.45;2.25;;;;;;;;;;5028487;28;20414;-58
2022/07/11 14:53:05;;;;;;;3.20;2.50;;;;;;;;;;5030302;28;20032;-58
2022/07/11 14:55:30;;;;;;;2.92;2.40;;;;;;;;;;5027434;28;20048;-58
2022/07/11 14:57:56;;;;;;;4.47;2.75;;;;;;;;;;5027999;28;20473;-59
2022/07/11 15:00:23;;;;;;;3.78;3.30;;;;;;;;;;5026641;28;20030;-58